createdAt,value
2017-07-18T00:01:43.567Z,72.70
2017-07-18T00:04:10.993Z,73.00
2017-07-18T00:06:38.765Z,72.70
2017-07-18T00:09:10.693Z,73.20
2017-07-18T00:11:39.817Z,73.30
2017-07-18T00:14:14.076Z,73.20
2017-07-18T00:16:41.542Z,73.90
2017-07-18T00:19:08.524Z,73.20
2017-07-18T00:21:36.296Z,73.90
2017-07-18T00:24:05.890Z,74.50
2017-07-18T00:26:33.646Z,73.60
2017-07-18T00:29:01.320Z,71.90
2017-07-18T00:31:29.848Z,72.20
2017-07-18T00:33:57.392Z,72.60
2017-07-18T00:36:24.949Z,73.10
2017-07-18T00:38:52.863Z,71.70
2017-07-18T00:41:21.697Z,72.40
2017-07-18T00:43:49.438Z,72.90
2017-07-18T00:46:16.802Z,71.60
2017-07-18T00:48:44.092Z,72.50
2017-07-18T00:51:11.742Z,73.60
2017-07-18T00:53:39.464Z,74.30
2017-07-18T00:56:06.588Z,73.40
2017-07-18T00:58:34.176Z,74.10
2017-07-18T01:01:01.794Z,73.20
2017-07-18T01:03:29.835Z,72.20
2017-07-18T01:06:00.973Z,72.70
2017-07-18T01:08:28.995Z,72.70
2017-07-18T01:10:57.423Z,73.40
2017-07-18T01:13:24.528Z,73.60
2017-07-18T01:15:52.305Z,73.40
2017-07-18T01:18:21.717Z,73.90
2017-07-18T01:20:50.017Z,74.40
2017-07-18T01:23:17.443Z,74.40
2017-07-18T01:25:44.518Z,74.10
2017-07-18T01:28:12.029Z,74.40
2017-07-18T01:30:43.840Z,74.60
2017-07-18T01:33:10.870Z,74.80
2017-07-18T01:35:39.317Z,75.10
2017-07-18T01:38:07.088Z,75.00
2017-07-18T01:40:35.280Z,75.10
2017-07-18T01:43:02.855Z,75.20
2017-07-18T01:45:30.963Z,74.40
2017-07-18T01:47:59.929Z,74.40
2017-07-18T01:50:27.975Z,75.30
2017-07-18T01:52:55.489Z,73.50
2017-07-18T01:55:23.022Z,74.10
2017-07-18T01:57:51.228Z,74.70
2017-07-18T02:00:18.774Z,74.50
2017-07-18T02:02:46.314Z,74.20
2017-07-18T02:05:14.576Z,75.00
2017-07-18T02:07:41.592Z,75.20
2017-07-18T02:10:09.453Z,75.80
2017-07-18T02:12:36.412Z,75.40
2017-07-18T02:15:03.425Z,75.50
2017-07-18T02:17:30.993Z,75.70
2017-07-18T02:22:31.630Z,75.50
2017-07-18T02:24:58.621Z,75.60
2017-07-18T02:27:25.694Z,75.80
2017-07-18T02:29:54.557Z,75.60
2017-07-18T02:32:22.145Z,75.20
2017-07-18T02:34:49.964Z,75.30
2017-07-18T02:37:20.987Z,75.40
2017-07-18T02:39:51.188Z,75.00
2017-07-18T02:42:18.991Z,75.00
2017-07-18T02:44:47.020Z,75.60
2017-07-18T02:47:15.384Z,76.20
2017-07-18T02:49:43.892Z,75.30
2017-07-18T02:52:12.800Z,75.60
2017-07-18T02:54:41.742Z,75.90
2017-07-18T02:57:11.041Z,76.30
2017-07-18T02:59:38.936Z,76.30
2017-07-18T03:02:06.098Z,76.50
2017-07-18T03:04:33.151Z,76.60
2017-07-18T03:07:00.643Z,76.30
2017-07-18T03:09:28.836Z,76.50
2017-07-18T03:11:56.772Z,76.70
2017-07-18T03:14:24.128Z,76.30
2017-07-18T03:16:53.544Z,76.90
2017-07-18T03:19:21.553Z,76.30
2017-07-18T03:21:51.363Z,76.90
2017-07-18T03:24:33.120Z,76.80
2017-07-18T03:27:01.006Z,76.60
2017-07-18T03:29:30.651Z,75.30
2017-07-18T03:31:58.185Z,75.60
2017-07-18T03:34:26.455Z,76.10
2017-07-18T03:36:55.482Z,76.50
2017-07-18T03:39:23.073Z,76.80
2017-07-18T03:41:50.768Z,76.50
2017-07-18T03:44:18.405Z,76.40
2017-07-18T03:46:47.445Z,76.60
2017-07-18T03:49:16.230Z,76.60
2017-07-18T03:51:50.390Z,77.30
2017-07-18T03:54:21.327Z,77.00
2017-07-18T03:56:53.736Z,76.30
2017-07-18T04:01:56.480Z,76.60
2017-07-18T04:04:23.396Z,76.10
2017-07-18T04:06:50.193Z,76.20
2017-07-18T04:09:17.075Z,76.60
2017-07-18T04:11:45.337Z,76.60
2017-07-18T04:14:12.157Z,76.30
2017-07-18T04:16:39.001Z,76.10
2017-07-18T04:19:05.834Z,75.90
2017-07-18T04:21:32.673Z,76.80
2017-07-18T04:23:59.468Z,76.80
2017-07-18T04:26:27.130Z,76.90
2017-07-18T04:28:54.446Z,78.00
2017-07-18T04:31:21.260Z,78.00
2017-07-18T04:33:48.108Z,77.30
2017-07-18T04:36:15.079Z,77.30
2017-07-18T04:38:41.905Z,77.00
2017-07-18T04:41:08.832Z,77.60
2017-07-18T04:43:35.798Z,77.70
2017-07-18T04:46:02.647Z,77.30
2017-07-18T04:48:29.673Z,77.20
2017-07-18T04:50:56.649Z,77.30
2017-07-18T04:53:23.741Z,76.40
2017-07-18T04:55:50.574Z,77.80
2017-07-18T04:58:17.608Z,77.20
2017-07-18T05:00:44.957Z,77.70
2017-07-18T05:03:12.234Z,77.70
2017-07-18T05:05:39.754Z,77.00
2017-07-18T05:08:07.167Z,76.90
2017-07-18T05:10:34.107Z,76.20
2017-07-18T05:13:01.310Z,76.50
2017-07-18T05:15:28.648Z,76.00
2017-07-18T05:17:55.979Z,75.00
2017-07-18T05:20:23.348Z,75.10
2017-07-18T05:22:50.346Z,75.40
2017-07-18T05:25:17.538Z,74.70
2017-07-18T05:27:44.865Z,74.10
2017-07-18T05:30:12.244Z,74.60
2017-07-18T05:32:39.163Z,74.50
2017-07-18T05:35:06.349Z,73.40
2017-07-18T05:37:33.540Z,73.90
2017-07-18T05:40:01.048Z,74.10
2017-07-18T05:42:29.920Z,72.70
2017-07-18T05:44:56.704Z,72.70
2017-07-18T05:47:23.533Z,69.90
2017-07-18T05:49:50.384Z,70.10
2017-07-18T05:52:17.198Z,70.20
2017-07-18T05:54:44.172Z,70.80
2017-07-18T05:57:11.348Z,71.20
2017-07-18T05:59:38.417Z,70.30
2017-07-18T06:02:05.249Z,70.10
2017-07-18T06:04:32.054Z,68.60
2017-07-18T06:06:59.305Z,68.90
2017-07-18T06:09:26.753Z,69.90
2017-07-18T06:11:53.736Z,70.40
2017-07-18T06:14:21.445Z,70.10
2017-07-18T06:16:48.563Z,69.80
2017-07-18T06:19:15.776Z,70.00
2017-07-18T06:21:43.218Z,69.70
2017-07-18T06:24:10.097Z,69.10
2017-07-18T06:26:37.145Z,68.80
2017-07-18T06:29:04.499Z,68.80
2017-07-18T06:31:31.261Z,68.30
2017-07-18T06:33:59.589Z,67.10
2017-07-18T06:36:26.961Z,66.30
2017-07-18T06:38:53.961Z,66.70
2017-07-18T06:41:22.567Z,66.70
2017-07-18T06:43:49.485Z,65.70
2017-07-18T06:46:17.384Z,65.60
2017-07-18T06:48:44.320Z,65.60
2017-07-18T06:51:11.821Z,65.90
2017-07-18T06:53:39.340Z,65.40
2017-07-18T06:56:07.303Z,65.60
2017-07-18T06:58:34.689Z,65.10
2017-07-18T07:01:01.616Z,63.40
2017-07-18T07:03:28.796Z,63.70
2017-07-18T07:05:57.006Z,63.40
2017-07-18T07:08:24.118Z,63.70
2017-07-18T07:10:52.398Z,63.90
2017-07-18T07:13:19.321Z,63.00
2017-07-18T07:15:46.231Z,61.20
2017-07-18T07:18:13.529Z,62.10
2017-07-18T07:20:40.325Z,61.50
2017-07-18T07:23:07.410Z,59.70
2017-07-18T07:25:34.327Z,58.30
2017-07-18T07:28:01.321Z,59.50
2017-07-18T07:30:28.631Z,58.50
2017-07-18T07:32:55.511Z,58.60
2017-07-18T07:35:22.446Z,59.40
2017-07-18T07:37:49.334Z,58.20
2017-07-18T07:40:16.222Z,59.30
2017-07-18T07:42:43.153Z,58.10
2017-07-18T07:45:10.132Z,57.20
2017-07-18T07:47:37.515Z,57.30
2017-07-18T07:50:04.449Z,56.70
2017-07-18T07:52:31.361Z,56.50
2017-07-18T07:54:58.165Z,55.20
2017-07-18T07:57:25.192Z,55.10
2017-07-18T07:59:52.156Z,55.30
2017-07-18T08:02:19.157Z,56.00
2017-07-18T08:04:46.260Z,56.30
2017-07-18T08:07:13.659Z,56.50
2017-07-18T08:09:41.975Z,55.50
2017-07-18T08:12:09.306Z,56.00
2017-07-18T08:14:36.133Z,54.80
2017-07-18T08:17:03.095Z,54.70
2017-07-18T08:19:30.173Z,55.50
2017-07-18T08:21:57.478Z,55.30
2017-07-18T08:24:27.522Z,54.20
2017-07-18T08:26:55.391Z,54.80
2017-07-18T08:29:23.229Z,55.00
2017-07-18T08:31:56.066Z,55.50
2017-07-18T08:34:23.219Z,54.30
2017-07-18T08:36:50.773Z,54.00
2017-07-18T08:39:17.911Z,54.80
2017-07-18T08:41:50.636Z,54.50
2017-07-18T08:44:18.176Z,55.10
2017-07-18T08:49:17.801Z,53.00
2017-07-18T08:51:46.168Z,54.00
2017-07-18T08:56:46.285Z,55.10
2017-07-18T08:59:13.277Z,55.10
2017-07-18T15:23:19.306Z,39.50
2017-07-18T15:25:46.137Z,39.90
2017-07-18T15:28:12.958Z,39.30
2017-07-18T15:30:39.859Z,38.40
2017-07-18T15:33:08.123Z,38.80
2017-07-18T15:35:34.930Z,38.40
2017-07-18T15:38:02.122Z,40.00
2017-07-18T15:40:28.981Z,38.10
2017-07-18T15:42:55.851Z,40.00
2017-07-18T15:45:23.062Z,38.60
2017-07-18T15:47:50.009Z,38.80
2017-07-18T15:50:16.907Z,38.20
2017-07-18T15:52:43.782Z,40.00
2017-07-18T15:55:10.625Z,40.10
2017-07-18T15:57:37.562Z,39.80
2017-07-18T16:00:04.713Z,40.60
2017-07-18T16:02:31.596Z,42.70
2017-07-18T16:04:58.388Z,41.10
2017-07-18T16:07:25.296Z,42.20
2017-07-18T16:09:52.261Z,41.20
2017-07-18T16:12:19.241Z,42.50
2017-07-18T16:14:46.100Z,42.70
2017-07-18T16:17:13.025Z,44.70
2017-07-18T16:19:39.989Z,44.70
2017-07-18T16:22:07.439Z,45.50
2017-07-18T16:24:34.473Z,43.00
2017-07-18T16:27:01.380Z,45.50
2017-07-18T16:29:31.532Z,46.10
2017-07-18T16:31:58.773Z,44.30
2017-07-18T16:34:25.591Z,43.50
2017-07-18T16:36:52.386Z,44.60
2017-07-18T16:39:19.221Z,45.50
2017-07-18T16:41:46.024Z,46.30
2017-07-18T16:44:12.827Z,46.40
2017-07-18T16:46:39.655Z,46.10
2017-07-18T16:49:06.961Z,48.10
2017-07-18T16:51:33.774Z,49.30
2017-07-18T16:54:00.714Z,50.40
2017-07-18T16:56:27.556Z,51.40
2017-07-18T16:58:54.339Z,52.30
2017-07-18T17:01:21.137Z,51.70
2017-07-18T17:03:48.081Z,52.20
2017-07-18T17:06:14.843Z,52.40
2017-07-18T17:08:41.577Z,52.50
2017-07-18T17:11:08.373Z,53.40
2017-07-18T17:13:35.134Z,53.90
2017-07-18T17:16:01.935Z,52.50
2017-07-18T17:18:28.744Z,52.50
2017-07-18T17:20:55.489Z,49.50
2017-07-18T17:23:24.059Z,47.70
2017-07-18T17:25:51.408Z,49.40
2017-07-18T17:28:18.188Z,49.80
2017-07-18T17:30:45.016Z,49.80
2017-07-18T17:33:11.910Z,49.70
2017-07-18T17:35:38.857Z,50.70
2017-07-18T17:38:06.669Z,50.50
2017-07-18T17:40:34.299Z,51.00
2017-07-18T17:43:01.364Z,49.10
2017-07-18T17:45:28.712Z,49.00
2017-07-18T17:47:56.237Z,46.20
2017-07-18T17:50:23.586Z,47.10
2017-07-18T17:52:50.519Z,46.30
2017-07-18T17:55:17.741Z,44.90
2017-07-18T17:57:44.545Z,46.20
2017-07-18T18:00:11.500Z,46.80
2017-07-18T18:02:38.318Z,46.70
2017-07-18T18:05:05.744Z,48.00
2017-07-18T18:07:33.332Z,48.10
2017-07-18T18:10:00.281Z,50.60
2017-07-18T18:12:27.387Z,54.10
2017-07-18T18:14:54.662Z,55.80
2017-07-18T18:17:21.937Z,55.70
2017-07-18T18:19:48.912Z,53.40
2017-07-18T18:22:16.038Z,52.80
2017-07-18T18:24:43.225Z,51.40
2017-07-18T18:27:10.640Z,51.60
2017-07-18T18:29:37.524Z,53.40
2017-07-18T18:32:04.662Z,53.60
2017-07-18T18:34:31.914Z,54.40
2017-07-18T18:36:59.241Z,54.10
2017-07-18T18:39:26.597Z,54.70
2017-07-18T18:41:53.775Z,54.60
2017-07-18T18:44:20.880Z,55.90
2017-07-18T18:46:48.196Z,59.50
2017-07-18T18:49:16.107Z,57.90
2017-07-18T18:51:43.455Z,57.80
2017-07-18T18:54:10.829Z,58.00
2017-07-18T18:56:37.689Z,58.50
2017-07-18T18:59:04.895Z,59.40
2017-07-18T19:01:31.697Z,60.50
2017-07-18T19:03:58.538Z,58.50
2017-07-18T19:06:25.383Z,59.30
2017-07-18T19:08:52.711Z,60.60
2017-07-18T19:11:19.678Z,61.00
2017-07-18T19:13:46.478Z,60.90
2017-07-18T19:16:13.856Z,62.70
2017-07-18T19:18:41.313Z,62.80
2017-07-18T19:21:08.247Z,60.00
2017-07-18T19:23:35.390Z,60.50
2017-07-18T19:26:02.294Z,61.80
2017-07-18T19:28:29.121Z,61.40
2017-07-18T19:30:55.898Z,61.40
2017-07-18T19:33:22.794Z,59.60
2017-07-18T19:35:49.855Z,59.60
2017-07-18T19:38:17.034Z,61.80
2017-07-18T19:40:44.464Z,59.80
2017-07-18T19:43:11.999Z,59.20
2017-07-18T19:45:38.961Z,58.70
2017-07-18T19:48:05.764Z,59.90
2017-07-18T19:50:33.558Z,58.30
2017-07-18T19:53:00.855Z,58.90
2017-07-18T19:55:29.376Z,58.90
2017-07-18T19:57:56.566Z,59.10
2017-07-18T20:00:23.541Z,60.30
2017-07-18T20:02:50.372Z,60.30
2017-07-18T20:05:17.268Z,62.20
2017-07-18T20:07:44.211Z,62.10
2017-07-18T20:10:11.105Z,64.60
2017-07-18T20:12:38.066Z,64.40
2017-07-18T20:15:04.897Z,64.80
2017-07-18T20:17:32.633Z,65.50
2017-07-18T20:25:18.545Z,66.50
2017-07-18T20:27:48.751Z,66.70
2017-07-18T20:30:16.096Z,67.00
2017-07-18T20:35:18.479Z,66.80
2017-07-18T20:37:45.421Z,66.00
2017-07-18T20:40:12.701Z,66.70
2017-07-18T20:42:40.113Z,66.40
2017-07-18T20:45:07.511Z,66.90
2017-07-18T20:47:35.015Z,65.60
2017-07-18T20:50:02.391Z,66.10
2017-07-18T20:52:29.340Z,65.90
2017-07-18T20:54:56.526Z,65.70
2017-07-18T20:57:23.884Z,65.90
2017-07-18T20:59:50.727Z,66.50
2017-07-18T21:02:17.838Z,66.70
2017-07-18T21:04:45.000Z,67.90
2017-07-18T21:07:12.490Z,70.00
2017-07-18T21:09:39.957Z,71.30
2017-07-18T21:12:07.327Z,72.60
2017-07-18T22:17:58.943Z,77.90
2017-07-18T22:20:41.255Z,76.80
2017-07-18T22:23:08.121Z,75.90
2017-07-18T22:25:35.960Z,78.00
2017-07-18T22:28:05.290Z,78.20
2017-07-18T22:30:32.524Z,73.80
2017-07-18T22:33:00.337Z,74.60
2017-07-18T22:35:28.501Z,75.30
2017-07-18T22:37:55.481Z,75.20
2017-07-18T22:40:22.904Z,75.50
2017-07-18T22:42:50.366Z,76.40
2017-07-18T22:45:17.942Z,76.60
2017-07-18T22:47:48.253Z,76.30
2017-07-18T22:50:15.710Z,76.50
2017-07-18T22:52:43.268Z,75.50
2017-07-18T22:55:10.370Z,76.10
2017-07-18T22:57:37.685Z,74.60
2017-07-18T23:00:04.868Z,75.50
2017-07-18T23:02:32.689Z,77.10
2017-07-18T23:04:59.725Z,75.60
2017-07-18T23:07:27.910Z,75.90
2017-07-18T23:09:56.176Z,75.80
2017-07-18T23:12:23.955Z,78.00
2017-07-18T23:14:51.023Z,75.80
2017-07-18T23:17:18.351Z,77.00
2017-07-18T23:19:46.717Z,76.90
2017-07-18T23:22:14.013Z,76.90
2017-07-18T23:24:42.495Z,74.30
2017-07-18T23:27:09.549Z,74.90
2017-07-18T23:29:36.759Z,76.50
2017-07-18T23:32:03.765Z,77.20
2017-07-18T23:34:36.561Z,77.60
2017-07-18T23:37:03.513Z,76.70
2017-07-18T23:39:31.377Z,77.40
2017-07-18T23:41:58.724Z,76.60
2017-07-18T23:44:26.289Z,77.00
2017-07-18T23:46:53.259Z,77.30
2017-07-18T23:49:20.355Z,76.40
2017-07-18T23:51:48.421Z,77.60
2017-07-18T23:54:16.476Z,76.60
2017-07-18T23:56:43.681Z,77.60
2017-07-18T23:59:11.030Z,78.20
